Time;durP1;ratioP1;P1;durP2;ratioP2;P2;SDS_P1;SDS_P2;PMS_P1;PMS_P2;Temp;Humidity;BMP_temperature;BMP_pressure;BME280_temperature;BME280_humidity;BME280_pressure;Samples;Min_cycle;Max_cycle;Signal;HPM_P1;HPM_P2
2022/03/20 00:00:04;;;;;;;13.02;5.18;;;;;;;6.03;56.47;103284.78;5000043;28;20038;-78
2022/03/20 00:02:32;;;;;;;14.00;7.03;;;;;;;5.71;57.94;103277.66;4998566;28;20037;-78
2022/03/20 00:04:58;;;;;;;13.40;6.50;;;;;;;5.45;58.66;103279.16;5001693;28;20099;-78
2022/03/20 00:07:23;;;;;;;12.52;5.85;;;;;;;5.51;58.64;103280.47;5000698;28;20617;-78
2022/03/20 00:09:51;;;;;;;10.02;4.70;;;;;;;5.90;57.25;103271.41;5001872;28;20037;-79
2022/03/20 00:12:16;;;;;;;14.65;5.95;;;;;;;5.63;58.18;103263.00;5002459;28;20113;-78
2022/03/20 00:14:41;;;;;;;8.38;4.50;;;;;;;5.86;57.13;103267.22;5000685;28;20121;-78
2022/03/20 00:17:07;;;;;;;11.77;6.10;;;;;;;5.94;57.20;103263.84;5000448;28;20097;-79
2022/03/20 00:19:32;;;;;;;10.20;6.03;;;;;;;5.85;57.15;103261.91;5001576;28;20037;-79
2022/03/20 00:21:57;;;;;;;10.88;5.90;;;;;;;5.97;56.69;103250.75;5001981;28;20390;-78
2022/03/20 00:24:23;;;;;;;14.48;6.95;;;;;;;5.57;58.47;103253.50;4993766;28;20443;-79
2022/03/20 00:26:52;;;;;;;10.27;6.22;;;;;;;5.72;57.57;103252.09;4999074;28;20103;-79
2022/03/20 00:29:18;;;;;;;12.43;7.03;;;;;;;5.47;58.56;103241.69;4999065;28;20623;-79
2022/03/20 00:31:43;;;;;;;14.95;8.52;;;;;;;5.32;59.21;103240.34;5003975;28;20042;-79
2022/03/20 00:34:09;;;;;;;14.65;7.88;;;;;;;5.74;57.50;103232.91;5002314;28;20025;-67
2022/03/20 00:36:36;;;;;;;13.70;6.90;;;;;;;5.47;58.27;103230.81;5003568;28;20025;-79
2022/03/20 00:39:02;;;;;;;15.07;7.38;;;;;;;5.46;58.35;103220.91;5002973;28;20022;-79
2022/03/20 00:41:27;;;;;;;14.15;7.43;;;;;;;5.17;60.00;103223.50;5002324;28;20032;-79
2022/03/20 00:43:52;;;;;;;14.65;8.45;;;;;;;4.90;60.65;103227.69;5004393;28;20388;-79
2022/03/20 00:46:18;;;;;;;13.60;6.88;;;;;;;5.10;59.97;103217.75;5004573;28;20045;-79
2022/03/20 00:48:43;;;;;;;10.60;6.15;;;;;;;5.03;60.34;103221.19;5004866;28;20041;-78
2022/03/20 00:51:10;;;;;;;9.52;4.80;;;;;;;5.21;59.63;103203.19;5002665;28;20547;-69
2022/03/20 00:53:36;;;;;;;13.60;7.57;;;;;;;4.80;61.32;103209.59;5003119;28;20080;-78
2022/03/20 00:56:01;;;;;;;12.50;6.65;;;;;;;4.77;61.15;103198.97;5002050;28;20029;-79
2022/03/20 00:58:27;;;;;;;9.98;5.53;;;;;;;4.83;61.27;103198.44;5003023;28;20049;-79
2022/03/20 01:00:52;;;;;;;16.23;6.93;;;;;;;4.80;61.24;103195.97;5002739;28;20055;-79
2022/03/20 01:03:17;;;;;;;13.00;7.50;;;;;;;5.36;59.41;103188.16;5004403;28;20034;-80
2022/03/20 01:05:42;;;;;;;12.00;6.60;;;;;;;4.63;61.70;103198.31;5001203;28;20385;-79
2022/03/20 01:08:08;;;;;;;16.67;7.82;;;;;;;4.49;62.16;103189.63;5005547;28;20093;-77
2022/03/20 01:10:33;;;;;;;11.15;6.60;;;;;;;4.92;60.44;103194.91;5003121;28;20027;-78
2022/03/20 01:12:58;;;;;;;8.55;5.35;;;;;;;4.88;60.45;103191.59;5002776;28;20065;-78
2022/03/20 01:15:23;;;;;;;16.15;8.50;;;;;;;4.68;61.67;103182.44;5003982;28;20030;-79
2022/03/20 01:17:49;;;;;;;15.00;8.00;;;;;;;4.88;60.60;103185.28;5002616;28;20456;-79
2022/03/20 01:20:14;;;;;;;11.75;6.30;;;;;;;4.90;60.54;103180.53;5002986;28;20045;-79
2022/03/20 01:22:40;;;;;;;11.73;8.00;;;;;;;4.79;60.85;103180.63;5002775;28;20117;-79
2022/03/20 01:25:08;;;;;;;18.13;10.23;;;;;;;4.81;60.94;103178.63;5002411;28;20444;-79
2022/03/20 01:27:34;;;;;;;19.13;10.65;;;;;;;4.75;61.13;103180.03;5003834;28;20033;-79
2022/03/20 01:29:59;;;;;;;21.15;9.55;;;;;;;4.57;61.87;103168.94;5004391;28;20041;-80
2022/03/20 01:32:26;;;;;;;17.35;10.35;;;;;;;4.56;61.90;103161.75;5000598;28;20030;-79
2022/03/20 01:34:52;;;;;;;16.77;9.88;;;;;;;4.50;61.87;103155.97;5004371;28;20051;-79
2022/03/20 01:37:18;;;;;;;22.90;13.52;;;;;;;4.56;61.75;103147.25;5001321;28;20724;-80
2022/03/20 01:39:43;;;;;;;18.88;11.70;;;;;;;4.57;61.44;103143.56;5000499;28;20117;-80
2022/03/20 01:42:08;;;;;;;20.95;15.18;;;;;;;4.88;60.72;103136.25;5004238;28;20036;-80
2022/03/20 01:44:35;;;;;;;20.38;11.75;;;;;;;4.49;61.57;103137.94;5006251;28;20138;-78
2022/03/20 01:47:01;;;;;;;24.20;14.27;;;;;;;4.53;61.23;103134.81;5005325;28;20477;-80
2022/03/20 01:49:27;;;;;;;21.35;13.95;;;;;;;4.72;60.65;103119.59;5003914;28;20041;-77
2022/03/20 01:52:11;;;;;;;21.83;11.77;;;;;;;4.67;60.57;103115.41;5004393;28;20022;-79
2022/03/20 01:54:45;;;;;;;25.63;17.10;;;;;;;4.98;59.49;103103.63;5005574;28;20067;-79
2022/03/20 01:57:20;;;;;;;22.33;13.93;;;;;;;4.56;60.75;103109.16;5004602;28;20531;-79
2022/03/20 01:59:46;;;;;;;24.50;16.25;;;;;;;4.64;60.44;103107.50;5004652;28;20040;-79
2022/03/20 02:02:11;;;;;;;23.58;15.95;;;;;;;4.51;60.71;103109.59;5004610;28;20388;-79
2022/03/20 02:04:38;;;;;;;23.85;13.45;;;;;;;4.43;61.30;103099.38;5005415;28;20469;-79
2022/03/20 02:07:04;;;;;;;24.08;17.00;;;;;;;4.48;60.82;103107.13;5004643;28;20105;-79
2022/03/20 02:09:31;;;;;;;21.67;14.07;;;;;;;4.34;61.46;103111.06;5002597;28;20091;-80
2022/03/20 02:11:57;;;;;;;24.85;16.15;;;;;;;4.60;60.46;103106.03;5004992;28;20097;-81
2022/03/20 02:14:22;;;;;;;23.00;15.25;;;;;;;4.46;61.19;103103.69;5004826;28;20022;-80
2022/03/20 02:16:49;;;;;;;26.15;14.05;;;;;;;4.43;60.98;103095.81;5004858;28;20041;-80
2022/03/20 02:19:15;;;;;;;21.30;14.43;;;;;;;4.43;61.18;103093.06;5000036;28;20486;-80
2022/03/20 02:21:42;;;;;;;20.60;13.00;;;;;;;4.33;61.91;103086.72;5002142;28;20026;-79
2022/03/20 02:24:26;;;;;;;25.27;15.45;;;;;;;4.53;61.02;103082.25;5004991;28;20092;-80
2022/03/20 02:27:04;;;;;;;27.52;17.30;;;;;;;4.31;61.34;103077.81;5003933;28;20030;-79
2022/03/20 02:29:30;;;;;;;30.48;20.95;;;;;;;4.29;61.26;103079.81;5002830;28;20042;-79
2022/03/20 02:31:58;;;;;;;31.67;19.70;;;;;;;4.57;60.38;103065.50;5002063;28;20034;-81
2022/03/20 02:34:23;;;;;;;;;;;;;;;4.53;60.38;103061.34;5000743;28;20037;-80
2022/03/20 02:36:49;;;;;;;28.50;19.10;;;;;;;4.28;60.94;103062.66;5002829;28;20293;-81
2022/03/20 02:39:14;;;;;;;28.77;18.92;;;;;;;4.14;61.75;103063.00;5004235;28;20273;-79
2022/03/20 02:41:39;;;;;;;25.50;16.15;;;;;;;4.55;60.38;103048.44;4999769;28;20026;-78
2022/03/20 02:44:05;;;;;;;26.13;15.25;;;;;;;4.44;60.33;103045.81;5003211;28;20034;-79
2022/03/20 02:46:32;;;;;;;29.70;17.90;;;;;;;4.26;61.03;103047.44;5001078;28;20117;-79
2022/03/20 02:48:58;;;;;;;25.52;17.92;;;;;;;4.40;60.58;103045.22;5000657;28;20018;-78
2022/03/20 02:51:24;;;;;;;30.15;18.75;;;;;;;4.16;61.42;103037.41;4999398;28;20049;-78
2022/03/20 02:53:49;;;;;;;26.48;17.65;;;;;;;4.29;60.52;103041.75;5001448;28;20018;-79
2022/03/20 02:56:14;;;;;;;33.83;23.15;;;;;;;4.39;60.73;103031.75;5003834;28;20349;-79
2022/03/20 02:58:40;;;;;;;32.97;25.80;;;;;;;4.37;60.79;103033.78;5015433;23;20064;-80
2022/03/20 03:01:06;;;;;;;32.50;20.48;;;;;;;3.93;62.09;103043.97;5024472;28;20411;-79
2022/03/20 03:03:31;;;;;;;35.67;20.75;;;;;;;3.64;63.25;103044.63;5023368;28;20068;-78
2022/03/20 03:05:58;;;;;;;26.70;18.52;;;;;;;4.12;61.44;103038.66;5042742;28;20065;-79
2022/03/20 03:11:08;;;;;;;31.63;22.17;;;;;;;3.87;62.32;103022.75;5024663;28;20051;-79
2022/03/20 03:13:39;;;;;;;32.80;22.58;;;;;;;3.50;63.92;103012.34;5024308;28;20030;-79
2022/03/20 03:16:07;;;;;;;29.75;21.75;;;;;;;4.11;62.03;103012.47;5031135;28;20483;-78
2022/03/20 03:18:32;;;;;;;34.47;22.52;;;;;;;3.72;63.22;103024.09;5024091;28;20026;-81
2022/03/20 03:20:59;;;;;;;27.48;18.50;;;;;;;3.68;63.52;103014.47;5023284;28;20040;-79
2022/03/20 03:23:25;;;;;;;24.90;15.90;;;;;;;3.77;62.56;103011.81;5022270;28;20071;-77
2022/03/20 03:25:50;;;;;;;30.95;21.13;;;;;;;3.54;63.97;103016.50;5026027;28;20014;-77
2022/03/20 03:28:16;;;;;;;28.63;20.02;;;;;;;3.72;63.06;103011.34;5032904;28;20463;-78
2022/03/20 03:30:46;;;;;;;29.67;19.58;;;;;;;3.79;62.63;103011.69;5023734;28;20048;-79
2022/03/20 03:33:13;;;;;;;36.55;25.15;;;;;;;3.46;63.93;102997.31;5023570;28;20034;-79
2022/03/20 03:35:57;;;;;;;33.92;22.38;;;;;;;3.41;64.37;102996.84;5033667;28;20403;-69
2022/03/20 03:38:22;;;;;;;38.33;25.98;;;;;;;3.25;64.92;103002.72;5023832;28;20017;-79
2022/03/20 03:40:48;;;;;;;32.70;24.17;;;;;;;3.87;62.71;102982.00;5023546;28;20420;-79
2022/03/20 03:43:15;;;;;;;36.90;28.00;;;;;;;3.90;62.79;102971.72;5023690;28;20030;-78
2022/03/20 03:45:40;;;;;;;37.55;26.40;;;;;;;3.88;62.36;102973.69;5026432;28;20498;-77
2022/03/20 03:48:06;;;;;;;29.05;20.35;;;;;;;3.64;63.39;102981.25;5024277;28;20109;-78
2022/03/20 03:50:32;;;;;;;29.77;22.27;;;;;;;3.70;63.15;102974.44;5025719;28;20051;-78
2022/03/20 03:52:57;;;;;;;30.20;23.83;;;;;;;3.60;63.42;102964.38;5024155;28;20667;-79
2022/03/20 03:55:23;;;;;;;31.90;22.58;;;;;;;3.64;63.30;102970.38;5024675;28;20025;-78
2022/03/20 03:57:50;;;;;;;35.08;25.13;;;;;;;3.66;63.40;102957.53;5042706;28;20029;-72
2022/03/20 04:00:17;;;;;;;26.23;18.20;;;;;;;3.36;64.70;102958.34;5023364;28;20361;-78
2022/03/20 04:02:42;;;;;;;29.80;18.67;;;;;;;2.98;66.22;102956.16;5023404;28;20127;-78
2022/03/20 04:05:08;;;;;;;27.00;17.80;;;;;;;3.54;63.92;102950.44;5015481;28;20100;-77
2022/03/20 04:07:35;;;;;;;33.72;22.17;;;;;;;3.24;64.66;102951.22;5020090;28;20037;-78
2022/03/20 04:10:02;;;;;;;28.73;22.15;;;;;;;3.41;64.73;102953.38;5023640;28;20360;-79
2022/03/20 04:12:28;;;;;;;28.08;20.58;;;;;;;3.51;63.81;102945.28;5023031;28;20029;-79
2022/03/20 04:14:54;;;;;;;30.58;21.38;;;;;;;3.14;65.42;102943.00;5023469;28;20147;-78
2022/03/20 04:17:19;;;;;;;29.42;19.75;;;;;;;2.99;66.01;102945.19;5035552;28;20115;-78
2022/03/20 04:19:44;;;;;;;40.17;24.48;;;;;;;3.29;65.38;102943.53;5023308;28;20425;-79
2022/03/20 04:22:09;;;;;;;32.03;19.38;;;;;;;3.49;64.02;102945.41;5023019;28;20075;-77
2022/03/20 04:24:36;;;;;;;31.40;21.33;;;;;;;3.34;64.73;102930.44;5023488;28;20038;-78
2022/03/20 04:27:02;;;;;;;40.92;35.15;;;;;;;3.70;63.75;102929.13;5023409;28;20025;-79
2022/03/20 04:29:28;;;;;;;32.15;23.80;;;;;;;3.58;64.02;102911.16;5032547;28;20574;-79
2022/03/20 04:31:54;;;;;;;40.28;22.92;;;;;;;3.46;63.94;102904.09;5033648;28;20029;-78
2022/03/20 04:34:20;;;;;;;34.63;27.73;;;;;;;3.59;64.17;102892.00;5022809;28;20546;-78
2022/03/20 04:36:46;;;;;;;32.80;22.75;;;;;;;3.43;64.75;102891.63;5023932;28;20116;-77
2022/03/20 04:39:11;;;;;;;34.85;27.88;;;;;;;3.42;63.75;102898.06;5042934;28;20162;-77
2022/03/20 04:41:36;;;;;;;36.80;23.77;;;;;;;3.24;64.37;102886.06;5043724;28;20033;-77
2022/03/20 04:44:02;;;;;;;32.42;25.00;;;;;;;3.58;63.63;102886.69;5031347;28;20116;-78
2022/03/20 04:46:27;;;;;;;29.23;21.17;;;;;;;3.28;64.59;102901.94;5021892;28;20006;-78
2022/03/20 04:59:48;;;;;;;29.77;21.55;;;;;;;3.21;64.86;102875.47;5036135;28;20114;-78
2022/03/20 05:02:14;;;;;;;23.35;18.10;;;;;;;3.25;64.16;102876.94;5031007;28;20515;-77
2022/03/20 05:04:39;;;;;;;32.83;19.67;;;;;;;2.81;65.93;102878.88;5038423;28;20128;-76
2022/03/20 05:07:05;;;;;;;29.65;19.73;;;;;;;3.15;65.28;102867.88;5042975;28;20025;-77
2022/03/20 05:15:03;;;;;;;37.55;23.77;;;;;;;2.96;65.02;102865.88;5041259;28;20573;-77
2022/03/20 05:17:28;;;;;;;30.73;18.20;;;;;;;3.16;64.25;102853.28;5037839;28;20033;-77
2022/03/20 05:19:54;;;;;;;26.60;18.67;;;;;;;3.31;63.79;102852.81;5039903;28;20055;-78
2022/03/20 05:22:20;;;;;;;28.48;18.65;;;;;;;3.22;64.42;102840.03;5041959;28;20033;-77
2022/03/20 05:24:46;;;;;;;32.08;21.73;;;;;;;3.04;64.24;102847.94;5039167;28;20402;-78
2022/03/20 05:27:11;;;;;;;33.88;23.02;;;;;;;2.73;66.12;102851.53;5043408;28;20025;-77
2022/03/20 05:29:38;;;;;;;28.80;17.33;;;;;;;2.69;65.73;102853.66;5032804;28;20037;-77
2022/03/20 05:32:04;;;;;;;29.55;19.70;;;;;;;2.90;65.14;102845.53;5044182;28;20108;-77
2022/03/20 05:34:32;;;;;;;24.85;17.65;;;;;;;2.93;64.58;102849.84;5034744;28;20079;-77
2022/03/20 05:36:59;;;;;;;26.05;18.38;;;;;;;3.06;64.44;102845.09;5034562;28;20163;-78
2022/03/20 05:39:24;;;;;;;35.40;23.00;;;;;;;2.73;65.13;102846.97;5041328;28;20059;-76
2022/03/20 05:41:51;;;;;;;34.25;20.38;;;;;;;2.81;64.68;102839.03;5032678;28;20086;-77
2022/03/20 05:44:21;;;;;;;32.65;22.40;;;;;;;2.65;65.33;102846.78;5042026;28;20064;-76
2022/03/20 05:46:49;;;;;;;32.38;21.02;;;;;;;2.56;65.15;102848.41;5024389;28;20033;-77
2022/03/20 05:49:20;;;;;;;26.38;16.80;;;;;;;2.94;63.64;102829.84;5025788;28;20071;-76
2022/03/20 05:51:47;;;;;;;26.35;17.63;;;;;;;3.18;62.66;102832.28;5034913;28;20804;-75
2022/03/20 05:54:15;;;;;;;24.70;17.25;;;;;;;3.05;62.98;102832.50;5040100;28;20040;-76
2022/03/20 05:59:24;;;;;;;37.13;21.10;;;;;;;2.84;63.05;102829.78;5040815;28;20064;-78
2022/03/20 06:01:51;;;;;;;30.33;20.48;;;;;;;3.18;62.26;102814.13;5045268;28;20025;-77
2022/03/20 06:04:19;;;;;;;27.88;20.92;;;;;;;3.28;61.63;102817.78;5034143;28;20063;-78
2022/03/20 06:06:45;;;;;;;35.22;23.65;;;;;;;2.99;62.07;102817.63;5035153;28;20083;-78
2022/03/20 06:09:11;;;;;;;28.95;19.98;;;;;;;2.84;62.33;102816.22;5031061;28;20480;-76
2022/03/20 06:11:37;;;;;;;28.63;18.10;;;;;;;2.94;62.60;102816.25;5028856;28;20090;-78
2022/03/20 06:14:03;;;;;;;29.33;17.88;;;;;;;2.99;61.82;102809.47;5042599;28;20025;-76
2022/03/20 06:16:34;;;;;;;33.20;21.75;;;;;;;3.15;60.72;102813.56;5042826;28;20616;-77
2022/03/20 06:19:00;;;;;;;29.35;18.05;;;;;;;3.29;60.42;102803.19;5039342;28;20110;-78
2022/03/20 06:21:28;;;;;;;36.50;24.98;;;;;;;3.20;60.67;102804.03;5030258;28;20128;-76
2022/03/20 06:23:54;;;;;;;30.95;20.15;;;;;;;3.25;60.68;102807.19;5038579;28;20021;-76
2022/03/20 06:26:19;;;;;;;33.50;25.80;;;;;;;3.70;59.02;102804.13;5040574;28;20040;-76
2022/03/20 06:28:46;;;;;;;33.95;22.08;;;;;;;3.75;58.55;102800.94;5044660;28;20020;-76
2022/03/20 06:31:12;;;;;;;30.13;21.20;;;;;;;3.80;58.67;102801.41;5044070;28;20021;-77
2022/03/20 06:33:39;;;;;;;40.40;24.02;;;;;;;3.63;58.19;102806.50;5043492;28;20101;-77
2022/03/20 06:36:06;;;;;;;37.40;25.67;;;;;;;3.58;58.80;102803.34;5020254;28;20029;-76
2022/03/20 06:38:32;;;;;;;34.30;20.70;;;;;;;3.68;58.67;102810.66;5024366;28;20063;-76
2022/03/20 06:40:58;;;;;;;35.65;24.67;;;;;;;3.58;58.56;102807.91;5035752;28;20091;-75
2022/03/20 06:43:27;;;;;;;39.20;26.40;;;;;;;3.58;59.09;102814.19;5028262;28;20043;-77
2022/03/20 06:45:53;;;;;;;34.72;24.55;;;;;;;3.77;58.33;102809.84;5040355;28;20033;-76
2022/03/20 06:48:18;;;;;;;37.90;26.73;;;;;;;4.05;57.41;102790.00;5024455;28;20037;-75
2022/03/20 06:50:44;;;;;;;31.90;19.58;;;;;;;4.02;57.19;102797.63;5024031;28;20360;-75
2022/03/20 06:53:11;;;;;;;38.40;22.33;;;;;;;3.90;57.90;102802.28;5024528;28;20037;-68
2022/03/20 06:55:37;;;;;;;36.13;26.88;;;;;;;4.31;56.15;102784.94;5023084;28;20036;-75
2022/03/20 06:58:02;;;;;;;37.30;25.90;;;;;;;3.85;57.76;102788.25;5024474;28;20022;-71
2022/03/20 07:00:31;;;;;;;32.00;22.02;;;;;;;4.09;56.44;102786.03;5024740;28;20338;-77
2022/03/20 07:02:56;;;;;;;;;;;;;;;3.83;57.08;102779.38;5024507;28;20039;-75
2022/03/20 07:05:22;;;;;;;34.35;20.77;;;;;;;3.81;57.61;102771.38;5037411;28;19916;-76
2022/03/20 07:07:50;;;;;;;32.80;22.13;;;;;;;4.07;57.04;102776.31;5027796;28;20018;-76
2022/03/20 07:10:15;;;;;;;32.42;21.13;;;;;;;4.22;56.68;102774.88;5037685;28;20041;-74
2022/03/20 07:12:41;;;;;;;33.28;22.17;;;;;;;4.53;54.75;102770.16;5040523;28;20044;-76
2022/03/20 07:15:06;;;;;;;34.85;27.08;;;;;;;4.53;55.28;102772.88;5036987;28;20097;-76
2022/03/20 07:17:36;;;;;;;27.40;19.10;;;;;;;4.51;53.61;102766.75;5033915;28;20499;-76
2022/03/20 07:20:03;;;;;;;37.70;26.27;;;;;;;4.65;53.72;102755.41;5022732;28;20415;-75
2022/03/20 07:22:28;;;;;;;39.97;24.15;;;;;;;4.28;54.05;102757.13;5030486;28;20678;-76
2022/03/20 07:24:53;;;;;;;39.35;25.98;;;;;;;4.38;53.40;102758.00;5024244;28;20050;-77
2022/03/20 07:30:04;;;;;;;37.10;26.58;;;;;;;4.88;52.03;102739.63;5004535;28;20630;-75
2022/03/20 07:32:29;;;;;;;33.88;22.35;;;;;;;4.85;50.12;102730.88;5017316;28;20060;-77
2022/03/20 07:34:54;;;;;;;33.13;21.67;;;;;;;4.82;50.89;102723.00;5033885;28;20487;-78
2022/03/20 07:37:21;;;;;;;34.45;24.45;;;;;;;4.72;51.07;102733.06;5043725;28;20025;-76
2022/03/20 07:39:49;;;;;;;34.42;24.20;;;;;;;5.32;49.29;102722.69;5037203;28;20029;-77
2022/03/20 07:42:15;;;;;;;37.20;24.63;;;;;;;4.91;49.26;102719.38;5040634;28;20029;-76
2022/03/20 07:44:41;;;;;;;38.83;25.50;;;;;;;4.74;50.28;102720.16;5022305;28;20034;-75
2022/03/20 07:47:08;;;;;;;31.65;19.17;;;;;;;4.84;50.15;102721.00;5023428;28;20044;-76
2022/03/20 07:49:36;;;;;;;37.28;25.13;;;;;;;4.71;49.25;102726.72;5022561;28;20116;-75
2022/03/20 07:52:02;;;;;;;35.65;24.95;;;;;;;4.98;49.53;102722.41;5004148;28;20025;-76
2022/03/20 07:54:27;;;;;;;41.08;26.35;;;;;;;4.56;51.46;102729.06;5033256;28;20029;-78
2022/03/20 07:56:53;;;;;;;39.10;24.48;;;;;;;4.61;49.42;102734.06;5041364;28;20588;-77
2022/03/20 07:59:18;;;;;;;42.70;25.52;;;;;;;4.63;50.34;102722.03;5008110;28;20042;-79
2022/03/20 08:01:43;;;;;;;36.00;24.42;;;;;;;4.88;49.15;102722.41;5003550;28;20049;-78
2022/03/20 08:04:08;;;;;;;38.80;26.00;;;;;;;4.73;49.07;102718.44;5027426;28;20017;-78
2022/03/20 08:06:34;;;;;;;43.38;25.98;;;;;;;4.75;49.04;102705.53;5038741;28;20061;-77
2022/03/20 08:08:59;;;;;;;38.72;26.95;;;;;;;4.79;49.17;102712.41;5021581;28;20025;-79
2022/03/20 08:11:28;;;;;;;41.15;26.27;;;;;;;4.63;49.55;102702.97;5028787;28;20033;-78
2022/03/20 08:13:54;;;;;;;40.50;26.20;;;;;;;4.57;50.27;102708.16;5029865;28;20079;-78
2022/03/20 08:16:22;;;;;;;37.95;24.00;;;;;;;5.05;48.44;102697.13;5042486;28;20033;-75
2022/03/20 08:18:48;;;;;;;39.58;25.33;;;;;;;4.68;49.26;102681.63;5043789;28;20025;-76
2022/03/20 08:21:14;;;;;;;42.03;27.20;;;;;;;4.55;48.81;102691.97;5030295;28;20026;-76
2022/03/20 08:23:40;;;;;;;38.70;26.13;;;;;;;4.49;50.32;102697.13;5024771;28;20028;-75
2022/03/20 08:26:08;;;;;;;38.17;24.50;;;;;;;4.75;49.35;102694.66;5043824;28;20025;-81
2022/03/20 08:28:37;;;;;;;42.92;27.50;;;;;;;4.53;49.94;102696.69;5020603;28;20197;-76
2022/03/20 08:31:03;;;;;;;41.03;26.90;;;;;;;4.49;50.12;102689.81;5022199;28;20033;-75
2022/03/20 08:33:28;;;;;;;46.58;28.63;;;;;;;4.53;51.69;102687.69;5021400;28;20536;-74
2022/03/20 08:35:53;;;;;;;39.90;26.33;;;;;;;4.56;49.86;102681.94;5041104;28;20532;-76
2022/03/20 08:38:18;;;;;;;46.95;28.77;;;;;;;4.65;50.07;102687.34;5037540;28;20025;-76
2022/03/20 08:40:43;;;;;;;42.70;26.35;;;;;;;4.60;49.55;102684.22;5004295;28;20057;-75
2022/03/20 08:43:15;;;;;;;45.53;28.10;;;;;;;4.64;49.62;102691.09;5018364;28;20522;-68
2022/03/20 08:45:41;;;;;;;37.63;22.58;;;;;;;5.04;48.08;102679.06;5043005;28;20550;-76
2022/03/20 08:48:07;;;;;;;40.40;24.63;;;;;;;4.79;49.10;102690.63;5043143;28;20036;-77
2022/03/20 08:50:32;;;;;;;45.60;28.67;;;;;;;4.62;50.21;102684.09;5043074;28;20036;-76
2022/03/20 08:52:58;;;;;;;47.85;28.98;;;;;;;4.57;50.03;102681.81;5031792;28;20047;-76
2022/03/20 08:55:24;;;;;;;48.38;29.38;;;;;;;4.58;49.97;102677.22;5025493;28;20032;-75
2022/03/20 08:57:52;;;;;;;41.38;23.98;;;;;;;4.60;49.83;102694.25;5024095;28;20028;-75
2022/03/20 09:00:20;;;;;;;52.92;30.35;;;;;;;4.52;50.23;102700.44;5038847;28;20064;-75
2022/03/20 09:02:46;;;;;;;45.95;27.50;;;;;;;4.57;49.86;102692.69;5044006;28;20029;-76
2022/03/20 09:05:12;;;;;;;49.22;30.27;;;;;;;4.51;50.75;102696.00;5035612;28;20213;-75
2022/03/20 09:07:42;;;;;;;52.65;31.20;;;;;;;4.49;51.32;102699.84;5046197;28;20163;-76
2022/03/20 09:10:08;;;;;;;45.10;30.00;;;;;;;4.65;50.14;102692.78;5044130;28;20063;-77
2022/03/20 09:12:34;;;;;;;50.67;31.02;;;;;;;4.54;50.92;102697.56;5042286;28;20056;-77
2022/03/20 09:15:04;;;;;;;56.13;32.80;;;;;;;4.56;50.23;102693.69;5035021;28;20018;-76
2022/03/20 09:20:14;;;;;;;55.25;31.20;;;;;;;4.71;51.55;102693.22;5025409;28;20044;-74
2022/03/20 09:22:40;;;;;;;52.72;32.42;;;;;;;4.77;51.56;102684.50;5026258;28;20053;-76
2022/03/20 09:25:07;;;;;;;53.58;32.70;;;;;;;4.96;50.87;102676.22;5035610;28;20041;-79
2022/03/20 09:27:32;;;;;;;42.40;22.25;;;;;;;5.55;48.03;102661.31;5041482;28;20396;-78
2022/03/20 09:29:58;;;;;;;57.90;31.17;;;;;;;5.29;49.39;102660.34;5039694;28;20068;-77
2022/03/20 09:32:23;;;;;;;58.50;33.35;;;;;;;5.57;49.71;102651.09;5026049;28;20032;-76
2022/03/20 09:34:48;;;;;;;61.05;33.72;;;;;;;5.96;48.89;102646.25;5028889;28;20476;-75
2022/03/20 09:37:14;;;;;;;47.97;26.02;;;;;;;6.63;46.54;102626.66;5025464;28;20025;-77
2022/03/20 09:39:39;;;;;;;52.85;31.38;;;;;;;7.87;44.91;102629.69;5025819;28;20040;-77
2022/03/20 09:42:06;;;;;;;56.85;33.50;;;;;;;8.91;42.07;102632.50;5024401;28;20040;-76
2022/03/20 09:44:33;;;;;;;58.38;34.08;;;;;;;10.10;39.16;102631.34;5036319;28;20225;-78
2022/03/20 09:46:59;;;;;;;57.30;33.35;;;;;;;11.63;39.36;102624.31;5038882;28;20033;-80
2022/03/20 09:49:25;;;;;;;42.47;26.80;;;;;;;11.58;37.51;102598.44;5042183;28;20115;-79
2022/03/20 09:51:52;;;;;;;52.78;31.42;;;;;;;11.84;35.51;102601.50;5043690;28;20515;-78
2022/03/20 09:54:18;;;;;;;49.00;27.73;;;;;;;11.98;35.55;102615.41;5044880;28;20029;-79
2022/03/20 09:56:43;;;;;;;65.38;37.22;;;;;;;11.40;35.77;102607.09;5042727;28;20086;-79
2022/03/20 09:59:09;;;;;;;61.17;36.70;;;;;;;10.91;37.17;102611.34;5041143;28;20049;-80
2022/03/20 10:01:36;;;;;;;63.70;36.72;;;;;;;9.97;39.15;102617.38;5031089;28;20088;-81
2022/03/20 10:04:15;;;;;;;68.05;39.35;;;;;;;9.53;40.13;102623.50;5024680;28;20112;-80
2022/03/20 10:06:42;;;;;;;72.28;38.92;;;;;;;8.46;41.27;102622.16;5024164;28;20029;-78
2022/03/20 10:09:10;;;;;;;72.63;40.25;;;;;;;8.00;44.14;102632.75;5027187;28;20025;-79
2022/03/20 10:11:46;;;;;;;71.25;40.90;;;;;;;7.64;45.76;102635.78;5038519;28;20210;-80
2022/03/20 10:14:20;;;;;;;68.40;40.55;;;;;;;7.38;45.92;102629.56;5043953;28;20399;-80
2022/03/20 10:16:53;;;;;;;72.07;41.17;;;;;;;7.16;46.64;102620.97;5044445;28;20033;-80
2022/03/20 10:19:21;;;;;;;74.72;43.00;;;;;;;7.03;47.28;102640.53;5043059;28;20079;-80
2022/03/20 10:21:50;;;;;;;75.35;41.55;;;;;;;6.96;47.04;102642.22;5042816;28;20060;-81
2022/03/20 10:24:17;;;;;;;78.40;42.63;;;;;;;6.91;47.36;102650.03;5043811;28;20029;-82
2022/03/20 10:26:43;;;;;;;86.32;44.72;;;;;;;6.81;53.39;102645.72;5041496;28;20031;-82
2022/03/20 10:29:16;;;;;;;93.22;48.58;;;;;;;6.44;56.20;102652.31;5036059;28;20347;-81
2022/03/20 10:31:52;;;;;;;86.18;47.67;;;;;;;6.30;57.30;102671.97;5043916;28;20075;-81
2022/03/20 10:34:19;;;;;;;88.45;47.55;;;;;;;6.11;60.74;102668.41;5040033;28;20063;-82
2022/03/20 10:36:45;;;;;;;89.47;50.30;;;;;;;5.81;60.45;102661.41;5043960;28;20063;-80
2022/03/20 10:39:14;;;;;;;94.40;50.35;;;;;;;5.71;64.41;102666.94;5043799;28;20021;-82
2022/03/20 10:41:39;;;;;;;99.75;51.17;;;;;;;5.62;63.85;102656.94;5043924;28;20029;-80
2022/03/20 10:44:18;;;;;;;134.25;73.18;;;;;;;5.51;65.30;102656.31;5042793;28;20436;-81
2022/03/20 10:47:09;;;;;;;95.03;51.45;;;;;;;5.54;65.53;102672.38;5043388;28;20108;-81
2022/03/20 10:49:35;;;;;;;105.78;54.42;;;;;;;5.35;67.92;102662.44;5043546;28;20487;-81
2022/03/20 10:52:05;;;;;;;96.57;53.33;;;;;;;5.29;69.61;102658.47;5027061;28;20032;-81
2022/03/20 10:54:42;;;;;;;100.53;52.40;;;;;;;5.45;69.24;102649.63;5023711;28;20083;-82
2022/03/20 10:57:08;;;;;;;96.43;52.67;;;;;;;5.70;70.83;102646.16;5043792;28;20025;-82
2022/03/20 10:59:34;;;;;;;96.60;52.38;;;;;;;6.28;68.75;102650.28;5040934;28;20543;-82
2022/03/20 11:02:02;;;;;;;98.63;52.42;;;;;;;6.40;65.89;102645.44;5042704;28;20071;-81
2022/03/20 11:04:28;;;;;;;99.10;51.45;;;;;;;6.34;66.25;102646.09;5042852;28;20041;-83
2022/03/20 11:06:54;;;;;;;102.88;52.30;;;;;;;6.20;66.17;102640.19;5043751;28;20159;-81
2022/03/20 11:09:20;;;;;;;100.28;53.60;;;;;;;6.02;67.04;102639.31;5039712;28;20033;-83
2022/03/20 11:11:48;;;;;;;103.07;53.70;;;;;;;6.11;69.86;102641.13;5043564;28;20028;-83
2022/03/20 11:14:16;;;;;;;95.27;52.80;;;;;;;6.09;68.15;102651.34;5043164;28;20147;-83
2022/03/20 11:16:43;;;;;;;99.35;53.00;;;;;;;5.99;68.10;102642.38;5043104;28;20031;-82
2022/03/20 11:19:11;;;;;;;94.20;52.13;;;;;;;5.97;68.22;102641.66;5042899;28;20028;-66
2022/03/20 11:21:38;;;;;;;;;;;;;;;6.00;65.66;102649.53;5040261;28;20391;-83
2022/03/20 11:24:05;;;;;;;105.22;52.28;;;;;;;6.00;67.08;102644.09;5043679;28;19912;-83
2022/03/20 11:26:32;;;;;;;98.95;53.72;;;;;;;6.05;67.79;102658.13;5042823;28;20108;-82
2022/03/20 11:29:01;;;;;;;101.78;53.45;;;;;;;6.05;68.03;102654.53;5043300;28;20024;-83
2022/03/20 11:31:31;;;;;;;98.03;52.45;;;;;;;6.00;68.19;102662.31;5042090;28;20447;-82
2022/03/20 11:33:56;;;;;;;95.82;51.95;;;;;;;5.98;68.29;102646.97;5041332;28;20035;-81
2022/03/20 11:36:22;;;;;;;102.95;54.03;;;;;;;6.06;68.44;102656.25;5043083;28;20025;-80
2022/03/20 11:39:10;;;;;;;97.50;52.47;;;;;;;6.24;66.75;102647.03;5042860;28;20491;-83
2022/03/20 11:41:35;;;;;;;98.22;53.67;;;;;;;6.31;69.20;102649.13;5016683;28;20244;-82
2022/03/20 11:44:21;;;;;;;94.50;52.63;;;;;;;6.38;66.67;102642.00;5038431;28;20158;-82